Time;durP1;ratioP1;P1;durP2;ratioP2;P2;SDS_P1;SDS_P2;PMS_P1;PMS_P2;Temp;Humidity;BMP_temperature;BMP_pressure;BME280_temperature;BME280_humidity;BME280_pressure;Samples;Min_cycle;Max_cycle;Signal;HPM_P1;HPM_P2
2022/12/22 04:17:40;;;;;;;3.85;1.00;;;22.00;54.00;;;;;;5619594;22;20238;-44
2022/12/22 04:20:11;;;;;;;1.90;0.77;;;22.00;54.00;;;;;;5050026;28;20655;-42
2022/12/22 04:22:42;;;;;;;2.97;0.80;;;22.00;54.00;;;;;;5059546;28;20199;-47
2022/12/22 04:25:13;;;;;;;2.28;0.70;;;22.00;54.00;;;;;;5069451;28;20551;-42
2022/12/22 04:27:44;;;;;;;2.13;0.90;;;22.00;54.00;;;;;;5070174;28;20210;-44
2022/12/22 04:30:15;;;;;;;2.38;0.75;;;22.00;54.00;;;;;;5039445;28;20207;-42
2022/12/22 04:32:48;;;;;;;1.65;0.70;;;22.00;54.60;;;;;;5065471;28;20184;-44
2022/12/22 04:35:19;;;;;;;3.75;0.75;;;22.00;54.00;;;;;;5030538;28;20199;-46
2022/12/22 04:37:49;;;;;;;2.47;0.70;;;22.00;54.00;;;;;;5031010;28;20204;-42
2022/12/22 04:40:20;;;;;;;0.95;0.70;;;22.00;54.00;;;;;;5030402;28;20208;-44
2022/12/22 04:42:51;;;;;;;1.48;0.60;;;22.00;54.00;;;;;;5030832;28;20207;-45
2022/12/22 04:45:21;;;;;;;0.77;0.70;;;22.00;54.00;;;;;;5029489;28;20200;-51
2022/12/22 04:47:54;;;;;;;2.85;0.80;;;22.00;54.00;;;;;;5030819;28;20577;-43
2022/12/22 04:50:25;;;;;;;0.95;0.70;;;22.00;54.00;;;;;;5046513;28;20233;-44
2022/12/22 04:52:55;;;;;;;2.28;0.80;;;22.00;54.00;;;;;;5061486;28;20203;-46
2022/12/22 04:55:26;;;;;;;1.42;0.60;;;22.00;54.00;;;;;;5070028;28;20199;-46
2022/12/22 04:57:57;;;;;;;1.17;0.60;;;22.00;54.00;;;;;;5063660;28;20738;-46
2022/12/22 05:00:27;;;;;;;1.30;0.65;;;22.00;54.00;;;;;;5050150;28;20222;-44
2022/12/22 05:03:00;;;;;;;1.67;0.82;;;22.00;54.00;;;;;;5050096;28;20198;-50
2022/12/22 05:05:31;;;;;;;1.40;0.70;;;22.00;54.00;;;;;;5050086;28;20202;-44
2022/12/22 05:08:01;;;;;;;2.22;0.75;;;22.00;53.90;;;;;;5049536;28;20198;-40
2022/12/22 05:10:32;;;;;;;1.95;0.75;;;22.00;53.90;;;;;;5049293;28;20212;-42
2022/12/22 05:13:03;;;;;;;1.70;0.82;;;22.00;54.00;;;;;;5049228;28;20199;-46
2022/12/22 05:15:35;;;;;;;1.48;0.70;;;22.00;54.00;;;;;;5049559;28;20222;-44
2022/12/22 05:18:07;;;;;;;2.00;0.75;;;22.00;54.00;;;;;;5049644;28;20907;-48
2022/12/22 05:20:38;;;;;;;1.50;0.70;;;22.00;54.00;;;;;;5048934;28;20218;-46
2022/12/22 05:23:09;;;;;;;1.60;0.70;;;22.00;54.00;;;;;;5049983;28;20191;-42
2022/12/22 05:25:40;;;;;;;2.22;0.90;;;22.00;54.00;;;;;;5050314;28;20586;-40
2022/12/22 05:28:10;;;;;;;1.13;0.73;;;22.00;54.00;;;;;;5051199;28;20203;-47
2022/12/22 05:30:43;;;;;;;2.28;0.77;;;22.00;54.00;;;;;;5053421;28;20691;-45
2022/12/22 05:33:16;;;;;;;2.45;0.77;;;22.00;54.10;;;;;;5054647;28;20195;-45
2022/12/22 05:35:46;;;;;;;2.30;0.80;;;22.00;54.10;;;;;;5053206;28;20235;-46
2022/12/22 05:38:17;;;;;;;2.53;1.23;;;22.00;54.10;;;;;;5053888;28;20202;-43
2022/12/22 05:40:48;;;;;;;1.48;0.68;;;22.00;54.10;;;;;;5053598;28;20223;-43
2022/12/22 05:43:18;;;;;;;1.70;0.70;;;22.00;54.10;;;;;;5045933;28;20218;-45
2022/12/22 05:45:49;;;;;;;2.53;0.77;;;22.00;54.10;;;;;;5053773;28;20195;-42
2022/12/22 05:48:22;;;;;;;2.30;0.75;;;22.00;54.10;;;;;;5053462;28;20196;-45
2022/12/22 05:50:53;;;;;;;2.33;0.70;;;22.00;54.10;;;;;;5053033;28;20575;-45
2022/12/22 05:53:24;;;;;;;2.72;1.00;;;22.00;54.70;;;;;;5068035;28;20199;-43
2022/12/22 05:55:54;;;;;;;1.42;0.85;;;22.00;54.10;;;;;;5072786;28;20206;-44
2022/12/22 05:58:25;;;;;;;2.10;0.90;;;22.00;54.10;;;;;;5062598;28;20188;-46
2022/12/22 06:00:59;;;;;;;1.30;0.70;;;22.00;54.10;;;;;;5052578;28;20219;-48
2022/12/22 06:03:32;;;;;;;1.33;0.50;;;22.00;54.10;;;;;;5052600;28;20195;-46
2022/12/22 06:06:03;;;;;;;1.52;0.60;;;22.00;54.10;;;;;;5051265;28;20203;-44
2022/12/22 06:08:34;;;;;;;2.17;0.80;;;22.00;54.10;;;;;;5046151;28;20569;-43
2022/12/22 06:11:04;;;;;;;4.43;0.70;;;22.00;54.10;;;;;;5039599;28;20215;-40
2022/12/22 06:13:35;;;;;;;4.68;1.98;;;22.00;54.20;;;;;;5042503;28;20690;-41
2022/12/22 06:16:06;;;;;;;3.42;1.35;;;22.00;54.10;;;;;;5040552;28;20227;-40
2022/12/22 06:18:39;;;;;;;2.83;1.40;;;22.00;54.30;;;;;;5080479;22;20222;-49
2022/12/22 06:21:09;;;;;;;5.22;3.00;;;22.00;54.10;;;;;;5062996;28;20211;-51
2022/12/22 06:23:40;;;;;;;4.05;2.20;;;22.00;54.10;;;;;;5052968;28;20195;-51
2022/12/22 06:26:12;;;;;;;4.80;2.08;;;22.00;54.10;;;;;;5053360;28;20547;-50
2022/12/22 06:28:43;;;;;;;7.65;2.47;;;22.00;54.10;;;;;;5052969;28;20188;-50
2022/12/22 06:31:13;;;;;;;3.50;2.13;;;22.00;54.10;;;;;;5052746;28;20212;-47
2022/12/22 06:33:46;;;;;;;3.25;1.85;;;22.00;54.10;;;;;;5033094;28;20200;-50
2022/12/22 06:36:17;;;;;;;4.32;2.20;;;22.00;54.10;;;;;;5033226;28;20220;-48
2022/12/22 06:38:48;;;;;;;3.90;1.80;;;22.00;54.10;;;;;;5032699;28;20575;-48
2022/12/22 06:43:07;;;;;;;3.15;1.95;;;22.00;54.10;;;;;;5032830;28;20220;-46
2022/12/22 06:44:08;;;;;;;4.28;2.10;;;22.00;54.20;;;;;;5052198;28;20583;-49
2022/12/22 06:46:39;;;;;;;4.18;2.00;;;22.00;54.10;;;;;;5053185;28;20199;-48
2022/12/22 06:49:12;;;;;;;4.07;1.88;;;22.00;54.10;;;;;;5050944;28;20199;-50
2022/12/22 06:51:43;;;;;;;3.85;1.85;;;22.00;54.10;;;;;;5036752;28;20298;-48
2022/12/22 06:54:13;;;;;;;3.58;1.90;;;22.00;54.10;;;;;;5052643;28;20204;-47
2022/12/22 06:56:44;;;;;;;3.17;2.03;;;22.00;54.10;;;;;;5037369;28;20602;-50
2022/12/22 06:59:15;;;;;;;5.80;1.90;;;22.00;54.10;;;;;;5032982;28;20196;-49
2022/12/22 07:01:46;;;;;;;5.32;2.05;;;22.00;54.10;;;;;;5032819;28;20212;-48
2022/12/22 07:04:20;;;;;;;2.60;1.65;;;22.00;54.10;;;;;;5032236;28;20200;-50
2022/12/22 07:06:51;;;;;;;4.97;1.83;;;22.00;54.10;;;;;;5032149;28;20286;-48
2022/12/22 07:09:22;;;;;;;2.72;1.58;;;22.00;54.10;;;;;;5034788;28;20200;-47
2022/12/22 07:11:52;;;;;;;4.75;1.88;;;21.90;54.10;;;;;;5031704;28;20224;-49
2022/12/22 07:14:23;;;;;;;3.38;1.55;;;22.00;54.20;;;;;;5031764;28;20565;-47
2022/12/22 07:16:54;;;;;;;3.50;1.67;;;22.00;54.10;;;;;;5040690;28;20223;-49
2022/12/22 07:19:26;;;;;;;3.15;1.30;;;22.00;54.10;;;;;;5032232;28;20628;-48
2022/12/22 07:21:57;;;;;;;2.83;1.67;;;22.00;54.10;;;;;;5035577;28;20227;-48
2022/12/22 07:24:28;;;;;;;2.72;1.52;;;22.00;54.10;;;;;;5037138;28;20207;-48
2022/12/22 07:26:58;;;;;;;3.20;1.50;;;21.90;54.70;;;;;;5032453;28;20204;-47
2022/12/22 07:29:29;;;;;;;2.88;1.38;;;22.00;54.10;;;;;;5032453;28;20207;-50
2022/12/22 07:32:00;;;;;;;2.80;1.27;;;21.90;54.10;;;;;;5032042;28;20226;-47
2022/12/22 07:34:32;;;;;;;3.08;1.55;;;22.00;54.10;;;;;;5031793;28;20202;-47
2022/12/22 07:37:03;;;;;;;2.53;1.45;;;22.00;54.10;;;;;;5031408;28;20228;-49
2022/12/22 07:39:34;;;;;;;2.47;1.50;;;21.90;54.10;;;;;;5035270;28;20206;-51
2022/12/22 07:44:51;;;;;;;3.30;1.48;;;21.90;54.10;;;;;;5052493;28;20222;-48
2022/12/22 07:47:22;;;;;;;2.28;1.55;;;21.90;54.10;;;;;;5051727;28;20196;-53
2022/12/22 07:52:41;;;;;;;2.83;1.50;;;21.90;54.10;;;;;;5050783;28;20214;-47
2022/12/22 07:55:12;;;;;;;3.22;1.42;;;21.90;54.10;;;;;;5051742;28;20196;-47
2022/12/22 07:57:43;;;;;;;3.53;1.70;;;21.90;54.20;;;;;;5051252;28;20594;-48
2022/12/22 08:00:15;;;;;;;3.58;1.70;;;21.90;54.20;;;;;;5051423;28;20195;-47
2022/12/22 08:02:50;;;;;;;2.83;1.60;;;21.90;54.20;;;;;;5040593;28;20230;-48
2022/12/22 08:05:23;;;;;;;2.47;1.60;;;21.90;54.20;;;;;;5031303;28;20207;-48
2022/12/22 08:07:55;;;;;;;3.92;1.55;;;21.90;54.10;;;;;;5031715;28;20204;-48
2022/12/22 08:10:26;;;;;;;2.65;1.45;;;21.90;54.10;;;;;;5031857;28;20684;-48
2022/12/22 08:12:56;;;;;;;2.80;1.65;;;21.90;54.20;;;;;;5031187;28;20207;-51
2022/12/22 08:15:27;;;;;;;2.92;1.50;;;21.90;54.20;;;;;;5031362;28;20196;-50
2022/12/22 08:17:58;;;;;;;2.78;1.42;;;21.90;54.20;;;;;;5031741;28;20606;-51
2022/12/22 08:20:31;;;;;;;2.47;1.33;;;21.90;54.10;;;;;;5031316;28;20231;-52
2022/12/22 08:23:01;;;;;;;4.15;1.27;;;21.80;54.10;;;;;;5043061;28;20218;-52
2022/12/22 08:25:34;;;;;;;2.78;1.55;;;21.80;54.10;;;;;;5050594;28;20187;-47
2022/12/22 08:28:06;;;;;;;2.50;1.48;;;21.80;54.10;;;;;;5050097;28;20195;-55
2022/12/22 08:30:36;;;;;;;2.58;1.42;;;21.80;54.10;;;;;;5050787;28;20206;-51
2022/12/22 08:33:07;;;;;;;2.80;1.52;;;21.80;54.10;;;;;;5050745;28;20192;-57
2022/12/22 08:35:40;;;;;;;3.40;1.67;;;21.80;54.10;;;;;;5052855;28;20187;-48
2022/12/22 08:38:12;;;;;;;3.83;1.75;;;21.80;54.10;;;;;;5050600;28;20231;-47
2022/12/22 08:40:44;;;;;;;3.38;1.63;;;21.80;54.10;;;;;;5050776;28;20585;-48
2022/12/22 08:43:15;;;;;;;3.40;1.50;;;21.80;54.10;;;;;;5050371;28;20207;-48
2022/12/22 08:45:46;;;;;;;2.35;1.40;;;21.80;54.10;;;;;;5050587;28;20195;-53
2022/12/22 08:48:17;;;;;;;2.70;1.20;;;21.80;54.00;;;;;;5050538;28;20655;-48
2022/12/22 08:50:49;;;;;;;2.80;1.60;;;21.80;54.10;;;;;;5050975;28;20227;-48
2022/12/22 08:53:20;;;;;;;2.47;1.33;;;21.80;54.10;;;;;;5050613;28;20250;-48
2022/12/22 08:55:54;;;;;;;3.20;1.58;;;21.80;54.10;;;;;;5051005;28;20199;-48
2022/12/22 08:58:25;;;;;;;2.78;1.30;;;21.80;54.10;;;;;;5051113;28;20234;-49
2022/12/22 09:00:56;;;;;;;2.95;1.65;;;21.80;54.10;;;;;;5051037;28;20223;-53
2022/12/22 09:03:26;;;;;;;3.90;1.60;;;21.70;54.10;;;;;;5050295;28;20279;-51
2022/12/22 09:06:05;;;;;;;2.47;1.50;;;21.70;54.20;;;;;;5050378;28;20192;-47
2022/12/22 09:08:36;;;;;;;2.30;1.40;;;21.80;54.40;;;;;;5050765;28;20229;-49
2022/12/22 09:11:07;;;;;;;3.30;1.55;;;21.80;54.40;;;;;;5050900;28;20216;-53
2022/12/22 09:13:39;;;;;;;3.80;1.92;;;21.70;54.40;;;;;;5047224;28;20198;-48
2022/12/22 09:16:10;;;;;;;3.42;1.80;;;21.70;54.40;;;;;;5049160;28;20227;-56
2022/12/22 09:18:41;;;;;;;2.58;1.58;;;21.70;54.40;;;;;;5050705;28;20222;-58
2022/12/22 09:21:14;;;;;;;2.05;1.33;;;21.70;54.40;;;;;;5049571;28;20298;-56
2022/12/22 09:23:45;;;;;;;4.00;1.30;;;21.70;54.40;;;;;;5049703;28;20200;-55
2022/12/22 09:26:18;;;;;;;2.47;1.48;;;21.70;54.40;;;;;;5049957;28;20196;-57
2022/12/22 09:28:48;;;;;;;2.53;1.30;;;21.70;54.40;;;;;;5049663;28;20568;-57
2022/12/22 09:31:19;;;;;;;2.65;1.40;;;21.70;54.40;;;;;;5049573;28;20215;-53
2022/12/22 09:33:50;;;;;;;2.65;1.30;;;21.70;54.40;;;;;;5049352;28;20203;-57
2022/12/22 09:36:25;;;;;;;3.17;1.40;;;21.70;54.40;;;;;;5050167;28;20195;-55
2022/12/22 09:38:56;;;;;;;3.30;1.58;;;21.70;54.40;;;;;;5057050;28;20214;-56
2022/12/22 09:41:32;;;;;;;3.30;1.80;;;21.70;54.50;;;;;;5069670;28;20555;-58
2022/12/22 09:44:06;;;;;;;2.13;1.45;;;21.70;54.40;;;;;;5069677;28;20199;-59
2022/12/22 09:46:38;;;;;;;3.53;1.27;;;21.60;54.30;;;;;;5065150;28;20201;-52
2022/12/22 09:49:09;;;;;;;3.50;1.52;;;21.70;54.40;;;;;;5048564;28;20199;-56
2022/12/22 09:51:46;;;;;;;1.90;1.15;;;21.70;54.40;;;;;;5050006;28;20223;-56
2022/12/22 09:54:17;;;;;;;2.72;1.50;;;21.70;54.40;;;;;;5052106;28;20195;-59
2022/12/22 09:56:48;;;;;;;2.58;1.52;;;21.70;54.40;;;;;;5049121;28;20195;-53
2022/12/22 09:59:20;;;;;;;2.67;1.30;;;21.60;54.30;;;;;;5049141;28;20207;-57
2022/12/22 10:02:11;;;;;;;2.88;1.40;;;21.60;54.30;;;;;;5048950;28;20223;-51
2022/12/22 10:04:58;;;;;;;2.35;1.42;;;21.60;54.30;;;;;;5048980;28;20200;-57
2022/12/22 10:07:34;;;;;;;2.45;1.10;;;21.60;54.30;;;;;;5038761;28;20218;-58
2022/12/22 10:10:09;;;;;;;2.65;1.30;;;21.60;54.30;;;;;;5049100;28;20690;-57
2022/12/22 10:12:40;;;;;;;1.67;1.13;;;21.60;54.30;;;;;;5048802;28;20204;-57
2022/12/22 10:15:14;;;;;;;2.13;1.40;;;21.60;54.40;;;;;;5051253;28;20195;-58
2022/12/22 10:17:45;;;;;;;2.53;1.50;;;21.50;54.30;;;;;;5053470;28;20219;-58
2022/12/22 10:20:27;;;;;;;1.88;1.30;;;21.50;54.40;;;;;;5051280;28;20218;-56
2022/12/22 10:23:01;;;;;;;1.92;1.25;;;21.50;54.30;;;;;;5052927;28;20282;-58
2022/12/22 10:25:35;;;;;;;3.10;1.40;;;21.50;54.30;;;;;;5052916;28;20195;-57
2022/12/22 10:28:09;;;;;;;2.30;1.45;;;21.60;54.40;;;;;;5054589;28;20195;-59
2022/12/22 10:30:41;;;;;;;2.42;1.30;;;21.50;54.30;;;;;;5052325;28;20227;-56
2022/12/22 10:33:14;;;;;;;2.80;1.48;;;21.50;54.30;;;;;;5054670;28;20191;-57
2022/12/22 10:35:53;;;;;;;2.17;1.23;;;21.50;54.30;;;;;;5053011;28;20195;-58
2022/12/22 10:38:29;;;;;;;2.22;1.27;;;21.50;54.30;;;;;;5052002;28;20219;-57
2022/12/22 10:41:03;;;;;;;2.05;1.33;;;21.50;54.30;;;;;;5052820;28;20599;-58
2022/12/22 10:43:36;;;;;;;2.20;1.35;;;21.50;54.30;;;;;;5053934;28;20210;-58
2022/12/22 10:46:08;;;;;;;2.92;1.40;;;21.50;54.30;;;;;;5072797;28;20207;-58
2022/12/22 10:48:40;;;;;;;1.85;1.20;;;21.50;54.30;;;;;;5072516;28;20195;-54
2022/12/22 10:51:14;;;;;;;2.33;1.30;;;21.50;54.40;;;;;;5072466;28;20709;-57
2022/12/22 10:53:52;;;;;;;2.17;1.25;;;21.40;54.40;;;;;;5054165;28;20204;-56
2022/12/22 10:56:28;;;;;;;1.70;1.10;;;21.40;54.30;;;;;;5052124;28;20203;-58
2022/12/22 10:59:06;;;;;;;1.98;1.20;;;21.40;54.30;;;;;;5052286;28;20237;-58
2022/12/22 11:01:38;;;;;;;1.60;1.27;;;21.40;54.30;;;;;;5057864;28;20417;-54
2022/12/22 11:04:19;;;;;;;1.73;1.23;;;21.40;54.30;;;;;;5072670;28;20206;-57
2022/12/22 11:06:50;;;;;;;2.95;1.13;;;21.40;54.30;;;;;;5071763;28;20190;-57
2022/12/22 11:09:23;;;;;;;1.58;1.13;;;21.40;54.30;;;;;;5072500;28;20566;-58
2022/12/22 11:11:58;;;;;;;2.38;1.42;;;21.40;54.30;;;;;;5071780;28;20569;-57
2022/12/22 11:14:43;;;;;;;1.55;1.20;;;21.40;54.30;;;;;;5072815;28;20190;-53
2022/12/22 11:17:20;;;;;;;2.67;1.45;;;21.40;54.30;;;;;;5084045;22;20199;-41
2022/12/22 11:20:09;;;;;;;2.40;1.40;;;21.40;54.30;;;;;;5088822;28;20668;-40
2022/12/22 11:22:42;;;;;;;1.65;1.10;;;21.40;54.30;;;;;;5071292;28;20256;-46
2022/12/22 11:25:31;;;;;;;1.55;1.20;;;21.30;54.20;;;;;;5071723;28;20190;-44
2022/12/22 11:28:17;;;;;;;2.45;1.45;;;21.30;54.30;;;;;;5072252;28;20191;-44
2022/12/22 11:30:59;;;;;;;1.77;1.25;;;21.30;54.30;;;;;;5072148;28;20206;-45
2022/12/22 11:33:40;;;;;;;1.40;1.10;;;21.30;54.30;;;;;;5071998;28;20195;-42
2022/12/22 11:36:16;;;;;;;2.42;1.60;;;21.30;54.30;;;;;;5071846;28;20214;-41
2022/12/22 11:38:55;;;;;;;2.25;1.30;;;21.30;54.30;;;;;;5071837;28;20226;-45
2022/12/22 11:41:44;;;;;;;1.42;1.20;;;21.30;54.30;;;;;;5071858;28;20613;-46
2022/12/22 11:44:30;;;;;;;1.83;0.98;;;21.30;54.30;;;;;;5072153;28;20198;-47
2022/12/22 11:47:08;;;;;;;2.28;1.10;;;21.30;54.30;;;;;;5072204;28;20207;-43
2022/12/22 11:49:54;;;;;;;2.42;1.13;;;21.30;54.30;;;;;;5072100;28;20198;-44
2022/12/22 11:52:39;;;;;;;1.35;1.13;;;21.30;54.30;;;;;;5071966;28;20214;-44
2022/12/22 11:55:23;;;;;;;2.45;1.23;;;21.30;54.30;;;;;;5071943;28;20587;-44
2022/12/22 11:58:19;;;;;;;1.58;1.10;;;21.30;54.30;;;;;;5070710;28;20222;-41
2022/12/22 12:00:57;;;;;;;1.55;1.00;;;21.20;54.30;;;;;;5070405;28;20210;-45
2022/12/22 12:03:50;;;;;;;2.00;1.33;;;21.20;54.30;;;;;;5061695;28;20190;-43
2022/12/22 12:06:47;;;;;;;2.55;1.42;;;21.20;54.40;;;;;;5067733;28;20187;-44
2022/12/22 12:09:37;;;;;;;2.00;1.10;;;21.20;54.40;;;;;;5066941;28;20551;-44
2022/12/22 12:12:16;;;;;;;1.60;1.20;;;21.20;54.40;;;;;;5068950;28;20210;-45
2022/12/22 12:14:59;;;;;;;1.92;1.13;;;21.20;54.30;;;;;;5070529;28;20195;-43
2022/12/22 12:17:43;;;;;;;2.00;1.20;;;21.20;54.40;;;;;;5082992;22;20232;-50
2022/12/22 12:20:31;;;;;;;2.33;1.30;;;21.20;54.30;;;;;;5107901;28;20216;-53
2022/12/22 12:23:18;;;;;;;2.75;1.30;;;21.20;54.30;;;;;;5086996;28;20277;-51
2022/12/22 12:25:57;;;;;;;1.70;0.95;;;21.20;54.30;;;;;;5070566;28;20199;-51
2022/12/22 12:28:41;;;;;;;2.08;1.30;;;21.20;54.30;;;;;;5071498;28;20198;-50
2022/12/22 12:31:17;;;;;;;2.70;1.20;;;21.10;54.40;;;;;;5077715;28;20689;-51
2022/12/22 12:33:50;;;;;;;1.25;1.00;;;21.10;54.30;;;;;;5111809;28;20193;-51
2022/12/22 12:36:26;;;;;;;1.88;1.25;;;21.20;54.40;;;;;;5111505;28;20189;-51
2022/12/22 12:39:03;;;;;;;1.00;0.70;;;21.10;54.40;;;;;;5111094;28;20224;-50
2022/12/22 12:41:41;;;;;;;1.83;1.05;;;21.10;54.40;;;;;;5111653;28;20217;-49
2022/12/22 12:44:14;;;;;;;1.35;0.90;;;21.10;54.40;;;;;;5110994;28;20197;-52
2022/12/22 12:47:14;;;;;;;1.88;1.13;;;21.10;54.40;;;;;;5111490;28;20201;-51
2022/12/22 12:50:28;;;;;;;1.25;1.00;;;21.10;54.40;;;;;;5102026;28;20206;-50
2022/12/22 12:53:16;;;;;;;1.88;1.00;;;21.10;54.40;;;;;;5087726;28;20207;-47
2022/12/22 12:56:06;;;;;;;1.40;0.90;;;21.10;54.30;;;;;;5070638;28;20653;-51
2022/12/22 12:59:06;;;;;;;2.00;1.00;;;21.10;54.30;;;;;;5069818;28;20229;-50
2022/12/22 13:02:00;;;;;;;2.10;0.95;;;21.10;54.40;;;;;;5070365;28;20219;-50
2022/12/22 13:05:12;;;;;;;1.77;1.05;;;21.10;54.40;;;;;;5070581;28;20734;-50
2022/12/22 13:08:07;;;;;;;2.60;1.35;;;21.10;54.40;;;;;;5070650;28;20203;-49
2022/12/22 13:10:40;;;;;;;1.50;1.00;;;21.10;54.40;;;;;;5070495;28;20214;-51
2022/12/22 13:13:15;;;;;;;1.73;1.00;;;21.00;54.40;;;;;;5070673;28;20199;-51
2022/12/22 13:15:45;;;;;;;1.73;0.95;;;21.00;54.50;;;;;;5070865;28;20190;-50
2022/12/22 13:18:44;;;;;;;1.83;1.00;;;21.00;54.50;;;;;;5071028;28;20781;-50
2022/12/22 13:21:21;;;;;;;1.75;0.82;;;21.00;54.50;;;;;;5070445;28;20210;-52
2022/12/22 13:24:03;;;;;;;2.10;0.93;;;21.00;54.40;;;;;;5070351;28;20233;-51
2022/12/22 13:26:36;;;;;;;1.55;1.00;;;21.00;54.40;;;;;;5070465;28;20195;-49
2022/12/22 13:29:17;;;;;;;1.30;0.93;;;21.00;54.40;;;;;;5070271;28;20230;-49
2022/12/22 13:31:50;;;;;;;0.98;0.82;;;21.00;54.40;;;;;;5070393;28;20218;-48
2022/12/22 13:34:45;;;;;;;1.42;1.00;;;21.00;54.40;;;;;;5070675;28;20197;-47
2022/12/22 13:37:20;;;;;;;1.50;1.00;;;21.00;54.40;;;;;;5070592;28;20199;-48
2022/12/22 13:40:12;;;;;;;1.98;1.20;;;21.00;54.40;;;;;;5070613;28;20233;-48
2022/12/22 13:45:40;;;;;;;1.58;0.98;;;21.00;55.10;;;;;;5070457;28;21009;-48
2022/12/22 13:51:22;;;;;;;1.60;0.93;;;20.90;54.50;;;;;;5073730;28;20677;-49
2022/12/22 13:53:59;;;;;;;1.13;0.90;;;20.90;54.50;;;;;;5056664;28;20292;-48
2022/12/22 13:56:37;;;;;;;1.40;0.95;;;20.90;54.50;;;;;;5074120;28;20198;-48
2022/12/22 13:59:18;;;;;;;1.60;0.80;;;20.90;54.50;;;;;;5073703;28;20218;-47
2022/12/22 14:01:52;;;;;;;1.70;1.02;;;20.90;54.40;;;;;;5074230;28;20272;-48
2022/12/22 14:04:23;;;;;;;1.23;0.80;;;20.90;54.40;;;;;;5076317;28;20190;-49
2022/12/22 14:06:56;;;;;;;1.85;1.02;;;20.90;54.40;;;;;;5094514;28;20217;-51
2022/12/22 14:09:27;;;;;;;1.10;0.90;;;20.90;54.40;;;;;;5094373;28;20190;-49
2022/12/22 14:12:04;;;;;;;1.27;0.80;;;20.90;54.40;;;;;;5094002;28;20218;-49
2022/12/22 14:14:39;;;;;;;2.20;1.00;;;20.90;54.40;;;;;;5093748;28;20194;-49
2022/12/22 14:17:22;;;;;;;1.15;0.90;;;20.90;54.50;;;;;;5089841;28;20190;-48
2022/12/22 14:19:54;;;;;;;1.55;1.10;;;20.90;54.50;;;;;;5094512;28;20222;-48
2022/12/22 14:22:30;;;;;;;1.52;1.10;;;20.80;54.40;;;;;;5087109;28;20201;-48
2022/12/22 14:25:03;;;;;;;1.15;0.77;;;20.80;54.50;;;;;;5092054;28;20623;-48
2022/12/22 14:27:38;;;;;;;1.48;0.85;;;20.80;54.50;;;;;;5093811;28;20198;-48
2022/12/22 14:30:19;;;;;;;1.20;0.90;;;20.80;54.50;;;;;;5093212;28;20197;-47
2022/12/22 14:32:50;;;;;;;1.10;0.73;;;20.80;54.50;;;;;;5093009;28;20201;-48
2022/12/22 14:35:32;;;;;;;1.20;1.02;;;20.80;54.40;;;;;;5093071;28;20198;-50
2022/12/22 14:38:22;;;;;;;1.17;0.80;;;20.80;54.40;;;;;;5093709;28;20194;-49
2022/12/22 14:40:54;;;;;;;1.88;1.00;;;20.80;54.40;;;;;;5096396;28;20291;-52
2022/12/22 14:43:32;;;;;;;1.05;0.70;;;20.80;54.40;;;;;;5093039;28;20198;-54
2022/12/22 14:46:08;;;;;;;1.20;0.70;;;20.80;54.40;;;;;;5093351;28;20442;-49
2022/12/22 14:48:42;;;;;;;1.40;0.80;;;20.80;54.40;;;;;;5093267;28;20671;-51
2022/12/22 14:51:17;;;;;;;2.22;1.13;;;20.80;54.40;;;;;;5093275;28;20217;-53
2022/12/22 14:53:52;;;;;;;1.35;0.88;;;20.80;54.40;;;;;;5074929;28;20198;-51
2022/12/22 14:56:24;;;;;;;1.73;0.80;;;20.80;55.10;;;;;;5073214;28;20195;-51
2022/12/22 14:59:11;;;;;;;1.48;0.85;;;20.70;54.50;;;;;;5072622;28;20572;-52
2022/12/22 15:01:42;;;;;;;1.08;0.80;;;20.70;54.60;;;;;;5072092;28;20223;-53
2022/12/22 15:04:20;;;;;;;1.02;0.93;;;20.70;54.60;;;;;;5072475;28;20206;-51
2022/12/22 15:06:51;;;;;;;1.10;1.00;;;20.70;54.60;;;;;;5072266;28;20264;-51
2022/12/22 15:09:30;;;;;;;1.75;0.93;;;20.70;54.50;;;;;;5073083;28;20199;-48
2022/12/22 15:12:07;;;;;;;1.55;0.98;;;20.70;54.50;;;;;;5073158;28;20720;-51
2022/12/22 15:14:40;;;;;;;1.15;0.82;;;20.70;54.50;;;;;;5072571;28;20198;-52
2022/12/22 15:17:19;;;;;;;0.65;0.60;;;20.70;54.50;;;;;;5073017;28;20194;-51
2022/12/22 15:19:50;;;;;;;1.50;1.00;;;20.70;54.40;;;;;;5072644;28;20230;-49
2022/12/22 15:22:21;;;;;;;0.73;0.70;;;20.70;54.50;;;;;;5072373;28;20229;-53
2022/12/22 15:24:53;;;;;;;0.65;0.60;;;20.70;54.50;;;;;;5072580;28;20195;-53
2022/12/22 15:27:24;;;;;;;0.93;0.80;;;20.70;54.50;;;;;;5072390;28;20195;-53
2022/12/22 15:29:55;;;;;;;1.20;0.70;;;20.70;54.50;;;;;;5072030;28;20194;-52
2022/12/22 15:32:28;;;;;;;0.82;0.60;;;20.60;54.50;;;;;;5072115;28;20218;-50
2022/12/22 15:35:00;;;;;;;1.05;0.70;;;20.60;54.50;;;;;;5072501;28;20206;-51
2022/12/22 15:37:30;;;;;;;1.77;0.95;;;20.60;54.60;;;;;;5072235;28;20214;-50
2022/12/22 15:40:03;;;;;;;1.35;0.80;;;20.60;54.60;;;;;;5072161;28;20292;-49
2022/12/22 15:42:34;;;;;;;1.30;0.90;;;20.60;54.60;;;;;;5072122;28;20203;-50
2022/12/22 15:45:05;;;;;;;0.98;0.77;;;20.60;54.60;;;;;;5071689;28;20194;-55
2022/12/22 15:47:35;;;;;;;0.93;0.70;;;20.60;54.60;;;;;;5072106;28;20387;-52
2022/12/22 15:50:07;;;;;;;1.13;0.80;;;20.60;54.60;;;;;;5105756;28;20239;-52
2022/12/22 15:52:37;;;;;;;1.10;0.70;;;20.60;54.50;;;;;;5094621;28;20203;-54
2022/12/22 15:55:15;;;;;;;0.93;0.80;;;20.60;54.50;;;;;;5071614;28;20194;-53
2022/12/22 15:57:46;;;;;;;1.00;0.70;;;20.60;54.50;;;;;;5084373;28;20194;-51
2022/12/22 16:00:17;;;;;;;0.93;0.75;;;20.60;54.50;;;;;;5091854;28;20232;-49
2022/12/22 16:02:48;;;;;;;1.17;0.75;;;20.60;54.60;;;;;;5092085;28;20198;-51
2022/12/22 16:05:19;;;;;;;1.27;0.90;;;20.50;54.60;;;;;;5092215;28;20198;-55
2022/12/22 16:07:50;;;;;;;1.75;0.90;;;20.50;55.20;;;;;;5092068;28;20202;-50
2022/12/22 16:10:27;;;;;;;0.93;0.70;;;20.60;54.60;;;;;;5091573;28;20548;-52
2022/12/22 16:13:01;;;;;;;1.10;0.90;;;20.50;54.70;;;;;;5090891;28;20661;-51
2022/12/22 16:15:34;;;;;;;0.98;0.65;;;20.50;54.60;;;;;;5091972;28;20204;-52
2022/12/22 16:18:05;;;;;;;0.82;0.70;;;20.50;54.70;;;;;;5092433;28;20198;-52
2022/12/22 16:20:39;;;;;;;1.00;0.80;;;20.50;54.60;;;;;;5091722;28;20262;-51
2022/12/22 16:23:14;;;;;;;1.42;0.80;;;20.50;54.60;;;;;;5090474;28;20209;-50
2022/12/22 16:25:47;;;;;;;1.10;0.70;;;20.50;54.60;;;;;;5090917;28;20196;-48
2022/12/22 16:28:21;;;;;;;1.88;0.90;;;20.50;54.60;;;;;;5071227;28;20202;-53
2022/12/22 16:30:52;;;;;;;1.42;0.90;;;20.50;54.60;;;;;;5071416;28;20226;-49
2022/12/22 16:33:23;;;;;;;0.95;0.75;;;20.50;54.60;;;;;;5071653;28;20194;-50
2022/12/22 16:35:54;;;;;;;0.93;0.70;;;20.50;54.60;;;;;;5086084;28;20255;-54
2022/12/22 16:38:25;;;;;;;0.77;0.73;;;20.50;54.60;;;;;;5091294;28;20189;-52
2022/12/22 16:40:57;;;;;;;0.65;0.65;;;20.50;54.60;;;;;;5090842;28;20217;-52
2022/12/22 16:43:34;;;;;;;0.77;0.60;;;20.50;54.60;;;;;;5091574;28;20280;-50
2022/12/22 16:46:06;;;;;;;1.48;0.80;;;20.40;54.60;;;;;;5091441;28;20280;-52
2022/12/22 16:48:41;;;;;;;1.65;0.80;;;20.40;54.60;;;;;;5091400;28;20247;-54
2022/12/22 16:51:19;;;;;;;1.05;0.80;;;20.40;54.60;;;;;;5091450;28;20704;-49
2022/12/22 16:53:50;;;;;;;1.67;0.73;;;20.40;54.70;;;;;;5072247;28;20646;-52
2022/12/22 16:56:25;;;;;;;1.50;0.73;;;20.40;54.60;;;;;;5070986;28;20650;-49
2022/12/22 16:58:56;;;;;;;0.65;0.52;;;20.40;54.70;;;;;;5071090;28;20199;-52
2022/12/22 17:01:37;;;;;;;1.33;1.00;;;20.40;54.60;;;;;;5070903;28;20670;-53
2022/12/22 17:04:11;;;;;;;1.00;0.88;;;20.40;54.60;;;;;;5070904;28;20195;-51
2022/12/22 17:06:43;;;;;;;1.05;0.70;;;20.40;54.60;;;;;;5070697;28;20205;-51
2022/12/22 17:09:16;;;;;;;0.65;0.50;;;20.40;54.60;;;;;;5070529;28;20195;-48
2022/12/22 17:11:49;;;;;;;1.25;0.70;;;20.30;54.60;;;;;;5070568;28;20226;-51
2022/12/22 17:14:30;;;;;;;1.02;0.70;;;20.30;54.60;;;;;;5069946;28;20360;-47
2022/12/22 17:17:07;;;;;;;1.10;0.80;;;20.30;54.60;;;;;;5070527;28;20198;-49
2022/12/22 17:19:37;;;;;;;0.82;0.80;;;20.30;54.60;;;;;;5070824;28;20222;-51
2022/12/22 17:22:19;;;;;;;0.80;0.80;;;20.30;54.60;;;;;;5070733;28;20223;-52
2022/12/22 17:24:50;;;;;;;0.57;0.57;;;20.30;54.60;;;;;;5074215;28;20229;-49
2022/12/22 17:27:26;;;;;;;0.60;0.60;;;20.20;54.60;;;;;;5074645;28;20199;-52
2022/12/22 17:29:57;;;;;;;0.95;0.70;;;20.20;54.60;;;;;;5074168;28;20674;-49
2022/12/22 17:32:28;;;;;;;0.70;0.70;;;20.20;54.60;;;;;;5074400;28;20198;-53
2022/12/22 17:34:59;;;;;;;1.30;0.60;;;20.20;54.50;;;;;;5074485;28;20199;-48
2022/12/22 17:37:30;;;;;;;0.80;0.63;;;20.20;54.60;;;;;;5074912;28;20277;-52
2022/12/22 17:40:03;;;;;;;1.48;0.90;;;20.20;54.50;;;;;;5074787;28;20225;-48
2022/12/22 17:42:35;;;;;;;1.15;0.75;;;20.30;54.50;;;;;;5074481;28;20565;-47
2022/12/22 17:45:07;;;;;;;1.08;0.70;;;20.30;54.50;;;;;;5073925;28;20564;-49
2022/12/22 17:47:38;;;;;;;0.90;0.60;;;20.20;54.50;;;;;;5075011;28;20198;-48
2022/12/22 17:50:12;;;;;;;1.15;0.70;;;20.20;54.40;;;;;;5074576;28;20198;-48
2022/12/22 17:52:43;;;;;;;1.48;0.80;;;20.20;54.50;;;;;;5073981;28;20195;-50
2022/12/22 17:55:22;;;;;;;0.75;0.60;;;20.30;54.50;;;;;;5073417;28;20213;-46